PWSweather.com
Personal Weather Stations
Station Observations
ASHORC12
Ashland Or, Orchard St., Ashland, OR 97520

Ashland Or, Orchard St.Ashland, OR 97520

Lat: 42.199625, Lon: -122.731251

Elevation: 2257

Station Type: Davis Vantage VUE

High Low Average
Temperature 53.8°F12.1°C 42.3°F5.7°C 45.6°F7.6°C
Dew Point 41.4°F5.2°C 33.7°F0.9°C 39.5°F4.2°C
Winds 6.0 mph 9.7 kmh Calm Calm Calm SSWCalm SSW
Wind Gusts 12.0 mph19.3 kmh -- 2.0 mph3.2 kmh
Humidity 93% 52% 80%
Pressure 29.68 in1005.1 mb 29.61 in1002.7 mb -
Precipitation 0.12 in3.0 mm - -
Hour Temp Dew Point Humidity Winds Wind Gusts Pressure Precip Precip Rate Daily Precip Total
12:02 AM 44.2°F6.8°C 39.1°F3.9°C 82% Calm Calm -- 29.69 in1005.4 mb 0.00 in0.0 mm 0.00 in/hr0.0 mm/hr 0.00 in0.0 mm
12:07 AM 44.3°F6.8°C 39.2°F4.0°C 82% Calm Calm -- 29.69 in1005.4 mb 0.00 in0.0 mm 0.00 in/hr0.0 mm/hr 0.00 in0.0 mm
12:12 AM 44.1°F6.7°C 39.0°F3.9°C 82% Calm Calm -- 29.69 in1005.4 mb 0.00 in0.0 mm 0.00 in/hr0.0 mm/hr 0.00 in0.0 mm
12:17 AM 44.1°F6.7°C 38.7°F3.7°C 81% Calm Calm -- 29.68 in1005.1 mb 0.00 in0.0 mm 0.00 in/hr0.0 mm/hr 0.00 in0.0 mm
12:22 AM 44.1°F6.7°C 39.0°F3.9°C 82% Calm Calm -- 29.68 in1005.1 mb 0.00 in0.0 mm 0.00 in/hr0.0 mm/hr 0.00 in0.0 mm
12:27 AM 44.1°F6.7°C 39.0°F3.9°C 82% Calm Calm -- 29.68 in1005.1 mb 0.00 in0.0 mm 0.00 in/hr0.0 mm/hr 0.00 in0.0 mm
12:32 AM 44.2°F6.8°C 39.4°F4.1°C 83% Calm Calm -- 29.68 in1005.1 mb 0.00 in0.0 mm 0.00 in/hr0.0 mm/hr 0.00 in0.0 mm
12:37 AM 44.3°F6.8°C 39.5°F4.2°C 83% Calm Calm -- 29.68 in1005.1 mb 0.00 in0.0 mm 0.00 in/hr0.0 mm/hr 0.00 in0.0 mm
12:42 AM 44.3°F6.8°C 39.2°F4.0°C 82% Calm Calm -- 29.68 in1005.1 mb 0.00 in0.0 mm 0.00 in/hr0.0 mm/hr 0.00 in0.0 mm
12:47 AM 44.3°F6.8°C 39.2°F4.0°C 82% Calm Calm -- 29.68 in1005.1 mb 0.00 in0.0 mm 0.00 in/hr0.0 mm/hr 0.00 in0.0 mm
12:52 AM 44.3°F6.8°C 39.5°F4.2°C 83% Calm Calm -- 29.68 in1005.1 mb 0.00 in0.0 mm 0.00 in/hr0.0 mm/hr 0.00 in0.0 mm
12:57 AM 44.6°F7.0°C 39.5°F4.2°C 82% Calm Calm -- 29.68 in1005.1 mb 0.00 in0.0 mm 0.00 in/hr0.0 mm/hr 0.00 in0.0 mm
01:02 AM 44.6°F7.0°C 39.1°F3.9°C 81% Calm Calm -- 29.68 in1005.1 mb 0.00 in0.0 mm 0.00 in/hr0.0 mm/hr 0.00 in0.0 mm
01:09 AM 44.8°F7.1°C 39.3°F4.1°C 81% Calm Calm -- 29.68 in1005.1 mb 0.00 in0.0 mm 0.00 in/hr0.0 mm/hr 0.00 in0.0 mm
01:14 AM 44.8°F7.1°C 39.6°F4.2°C 82% Calm Calm -- 29.68 in1005.1 mb 0.00 in0.0 mm 0.00 in/hr0.0 mm/hr 0.00 in0.0 mm
01:20 AM 44.9°F7.2°C 39.4°F4.1°C 81% Calm Calm -- 29.68 in1005.1 mb 0.00 in0.0 mm 0.00 in/hr0.0 mm/hr 0.00 in0.0 mm
01:25 AM 44.9°F7.2°C 39.4°F4.1°C 81% Calm Calm -- 29.68 in1005.1 mb 0.00 in0.0 mm 0.00 in/hr0.0 mm/hr 0.00 in0.0 mm
01:30 AM 44.9°F7.2°C 39.7°F4.3°C 82% Calm Calm -- 29.67 in1004.7 mb 0.00 in0.0 mm 0.00 in/hr0.0 mm/hr 0.00 in0.0 mm
01:35 AM 45.1°F7.3°C 39.9°F4.4°C 82% Calm Calm -- 29.67 in1004.7 mb 0.00 in0.0 mm 0.00 in/hr0.0 mm/hr 0.00 in0.0 mm
01:40 AM 44.9°F7.2°C 39.4°F4.1°C 81% Calm Calm -- 29.67 in1004.7 mb 0.00 in0.0 mm 0.00 in/hr0.0 mm/hr 0.00 in0.0 mm
01:46 AM 44.9°F7.2°C 39.4°F4.1°C 81% Calm Calm -- 29.67 in1004.7 mb 0.00 in0.0 mm 0.00 in/hr0.0 mm/hr 0.00 in0.0 mm
01:52 AM 44.9°F7.2°C 39.7°F4.3°C 82% Calm Calm -- 29.67 in1004.7 mb 0.00 in0.0 mm 0.00 in/hr0.0 mm/hr 0.00 in0.0 mm
01:59 AM 44.9°F7.2°C 39.7°F4.3°C 82% Calm Calm -- 29.67 in1004.7 mb 0.00 in0.0 mm 0.00 in/hr0.0 mm/hr 0.00 in0.0 mm
02:04 AM 44.9°F7.2°C 40.1°F4.5°C 83% Calm Calm -- 29.67 in1004.7 mb 0.00 in0.0 mm 0.00 in/hr0.0 mm/hr 0.00 in0.0 mm
02:09 AM 44.8°F7.1°C 39.3°F4.1°C 81% Calm Calm 1.0 mph1.6 kmh 29.67 in1004.7 mb 0.00 in0.0 mm 0.00 in/hr0.0 mm/hr 0.00 in0.0 mm
02:14 AM 44.6°F7.0°C 39.1°F3.9°C 81% Calm Calm 2.0 mph3.2 kmh 29.66 in1004.4 mb 0.00 in0.0 mm 0.00 in/hr0.0 mm/hr 0.00 in0.0 mm
02:19 AM 44.6°F7.0°C 39.8°F4.3°C 83% Calm Calm 2.0 mph3.2 kmh 29.66 in1004.4 mb 0.00 in0.0 mm 0.00 in/hr0.0 mm/hr 0.00 in0.0 mm
02:25 AM 44.6°F7.0°C 40.4°F4.7°C 85% Calm Calm -- 29.66 in1004.4 mb 0.00 in0.0 mm 0.00 in/hr0.0 mm/hr 0.00 in0.0 mm
02:38 AM 44.6°F7.0°C 40.4°F4.7°C 85% Calm Calm -- 29.65 in1004.1 mb 0.00 in0.0 mm 0.00 in/hr0.0 mm/hr 0.00 in0.0 mm
02:44 AM 44.2°F6.8°C 40.3°F4.6°C 86% Calm Calm -- 29.65 in1004.1 mb 0.00 in0.0 mm 0.00 in/hr0.0 mm/hr 0.00 in0.0 mm
02:49 AM 44.2°F6.8°C 40.3°F4.6°C 86% Calm Calm -- 29.65 in1004.1 mb 0.00 in0.0 mm 0.00 in/hr0.0 mm/hr 0.00 in0.0 mm
02:55 AM 44.2°F6.8°C 40.5°F4.7°C 87% Calm Calm -- 29.65 in1004.1 mb 0.00 in0.0 mm 0.00 in/hr0.0 mm/hr 0.00 in0.0 mm
03:00 AM 44.2°F6.8°C 40.5°F4.7°C 87% Calm Calm -- 29.65 in1004.1 mb 0.01 in0.3 mm 0.01 in/hr0.3 mm/hr 0.01 in0.3 mm
03:05 AM 44.2°F6.8°C 41.1°F5.1°C 89% Calm Calm -- 29.65 in1004.1 mb 0.01 in0.3 mm 0.00 in/hr0.0 mm/hr 0.01 in0.3 mm
03:10 AM 44.2°F6.8°C 41.1°F5.1°C 89% Calm Calm -- 29.65 in1004.1 mb 0.01 in0.3 mm 0.00 in/hr0.0 mm/hr 0.01 in0.3 mm
03:19 AM 44.2°F6.8°C 41.4°F5.2°C 90% Calm Calm -- 29.66 in1004.4 mb 0.01 in0.3 mm 0.00 in/hr0.0 mm/hr 0.01 in0.3 mm
03:25 AM 44.1°F6.7°C 41.0°F5.0°C 89% Calm Calm -- 29.66 in1004.4 mb 0.01 in0.3 mm 0.00 in/hr0.0 mm/hr 0.01 in0.3 mm
03:30 AM 43.9°F6.6°C 40.8°F4.9°C 89% Calm Calm -- 29.66 in1004.4 mb 0.01 in0.3 mm 0.00 in/hr0.0 mm/hr 0.01 in0.3 mm
03:35 AM 43.9°F6.6°C 41.1°F5.1°C 90% Calm Calm 3.0 mph4.8 kmh 29.66 in1004.4 mb 0.01 in0.3 mm 0.00 in/hr0.0 mm/hr 0.01 in0.3 mm
03:40 AM 43.8°F6.6°C 41.0°F5.0°C 90% Calm Calm 3.0 mph4.8 kmh 29.66 in1004.4 mb 0.01 in0.3 mm 0.00 in/hr0.0 mm/hr 0.01 in0.3 mm
03:45 AM 43.8°F6.6°C 41.0°F5.0°C 90% Calm Calm -- 29.65 in1004.1 mb 0.01 in0.3 mm 0.00 in/hr0.0 mm/hr 0.01 in0.3 mm
03:50 AM 43.6°F6.4°C 41.1°F5.1°C 91% Calm Calm -- 29.65 in1004.1 mb 0.01 in0.3 mm 0.00 in/hr0.0 mm/hr 0.01 in0.3 mm
03:55 AM 43.6°F6.4°C 41.1°F5.1°C 91% Calm Calm -- 29.65 in1004.1 mb 0.01 in0.3 mm 0.00 in/hr0.0 mm/hr 0.01 in0.3 mm
04:01 AM 43.6°F6.4°C 41.1°F5.1°C 91% Calm Calm 2.0 mph3.2 kmh 29.65 in1004.1 mb 0.00 in0.0 mm 0.00 in/hr0.0 mm/hr 0.01 in0.3 mm
04:06 AM 43.5°F6.4°C 41.0°F5.0°C 91% Calm Calm 2.0 mph3.2 kmh 29.65 in1004.1 mb 0.01 in0.3 mm 0.12 in/hr3.0 mm/hr 0.02 in0.5 mm
04:11 AM 43.5°F6.4°C 41.0°F5.0°C 91% 1.0 mph NW1.6 kmh NW 3.0 mph4.8 kmh 29.65 in1004.1 mb 0.01 in0.3 mm 0.00 in/hr0.0 mm/hr 0.02 in0.5 mm
04:16 AM 43.5°F6.4°C 41.3°F5.2°C 92% 1.0 mph NW1.6 kmh NW 3.0 mph4.8 kmh 29.65 in1004.1 mb 0.01 in0.3 mm 0.00 in/hr0.0 mm/hr 0.02 in0.5 mm
04:21 AM 43.5°F6.4°C 41.3°F5.2°C 92% Calm Calm 3.0 mph4.8 kmh 29.65 in1004.1 mb 0.01 in0.3 mm 0.00 in/hr0.0 mm/hr 0.02 in0.5 mm
04:26 AM 43.3°F6.3°C 41.1°F5.1°C 92% Calm Calm 3.0 mph4.8 kmh 29.65 in1004.1 mb 0.01 in0.3 mm 0.00 in/hr0.0 mm/hr 0.02 in0.5 mm
04:31 AM 43.3°F6.3°C 41.1°F5.1°C 92% Calm Calm 3.0 mph4.8 kmh 29.66 in1004.4 mb 0.01 in0.3 mm 0.00 in/hr0.0 mm/hr 0.02 in0.5 mm
04:38 AM 43.3°F6.3°C 41.1°F5.1°C 92% Calm Calm 3.0 mph4.8 kmh 29.66 in1004.4 mb 0.01 in0.3 mm 0.00 in/hr0.0 mm/hr 0.02 in0.5 mm
04:43 AM 43.2°F6.2°C 41.0°F5.0°C 92% Calm Calm -- 29.66 in1004.4 mb 0.01 in0.3 mm 0.00 in/hr0.0 mm/hr 0.02 in0.5 mm
05:02 AM 42.9°F6.1°C 40.7°F4.8°C 92% Calm Calm -- 29.66 in1004.4 mb 0.00 in0.0 mm 0.00 in/hr0.0 mm/hr 0.02 in0.5 mm
05:07 AM 42.8°F6.0°C 40.6°F4.8°C 92% Calm Calm -- 29.66 in1004.4 mb 0.01 in0.3 mm 0.12 in/hr3.0 mm/hr 0.03 in0.8 mm
05:12 AM 42.8°F6.0°C 40.6°F4.8°C 92% Calm Calm -- 29.66 in1004.4 mb 0.01 in0.3 mm 0.00 in/hr0.0 mm/hr 0.03 in0.8 mm
05:17 AM 42.6°F5.9°C 40.4°F4.7°C 92% Calm Calm -- 29.66 in1004.4 mb 0.01 in0.3 mm 0.00 in/hr0.0 mm/hr 0.03 in0.8 mm
05:22 AM 42.8°F6.0°C 40.6°F4.8°C 92% Calm Calm -- 29.66 in1004.4 mb 0.01 in0.3 mm 0.00 in/hr0.0 mm/hr 0.03 in0.8 mm
05:27 AM 42.8°F6.0°C 40.3°F4.6°C 91% Calm Calm -- 29.66 in1004.4 mb 0.01 in0.3 mm 0.00 in/hr0.0 mm/hr 0.03 in0.8 mm
05:32 AM 42.8°F6.0°C 40.3°F4.6°C 91% Calm Calm -- 29.66 in1004.4 mb 0.01 in0.3 mm 0.00 in/hr0.0 mm/hr 0.03 in0.8 mm
05:37 AM 42.6°F5.9°C 40.1°F4.5°C 91% Calm Calm -- 29.66 in1004.4 mb 0.01 in0.3 mm 0.00 in/hr0.0 mm/hr 0.03 in0.8 mm
05:43 AM 42.5°F5.8°C 40.3°F4.6°C 92% Calm Calm -- 29.66 in1004.4 mb 0.01 in0.3 mm 0.00 in/hr0.0 mm/hr 0.03 in0.8 mm
05:48 AM 42.5°F5.8°C 40.3°F4.6°C 92% Calm Calm -- 29.66 in1004.4 mb 0.01 in0.3 mm 0.00 in/hr0.0 mm/hr 0.04 in1.0 mm
05:53 AM 42.5°F5.8°C 40.3°F4.6°C 92% Calm Calm -- 29.66 in1004.4 mb 0.01 in0.3 mm 0.00 in/hr0.0 mm/hr 0.04 in1.0 mm
05:58 AM 42.5°F5.8°C 40.3°F4.6°C 92% Calm Calm -- 29.66 in1004.4 mb 0.01 in0.3 mm 0.00 in/hr0.0 mm/hr 0.04 in1.0 mm
06:03 AM 42.5°F5.8°C 40.3°F4.6°C 92% Calm Calm -- 29.66 in1004.4 mb 0.01 in0.3 mm 0.00 in/hr0.0 mm/hr 0.04 in1.0 mm
06:08 AM 42.5°F5.8°C 40.3°F4.6°C 92% Calm Calm -- 29.66 in1004.4 mb 0.02 in0.5 mm 0.12 in/hr3.0 mm/hr 0.05 in1.3 mm
06:13 AM 42.5°F5.8°C 40.3°F4.6°C 92% Calm Calm -- 29.66 in1004.4 mb 0.02 in0.5 mm 0.00 in/hr0.0 mm/hr 0.05 in1.3 mm
06:18 AM 42.5°F5.8°C 40.3°F4.6°C 92% Calm Calm -- 29.66 in1004.4 mb 0.02 in0.5 mm 0.00 in/hr0.0 mm/hr 0.05 in1.3 mm
06:23 AM 42.3°F5.7°C 40.1°F4.5°C 92% Calm Calm -- 29.66 in1004.4 mb 0.02 in0.5 mm 0.00 in/hr0.0 mm/hr 0.05 in1.3 mm
06:28 AM 42.3°F5.7°C 40.1°F4.5°C 92% Calm Calm -- 29.66 in1004.4 mb 0.02 in0.5 mm 0.00 in/hr0.0 mm/hr 0.05 in1.3 mm
06:33 AM 42.3°F5.7°C 40.1°F4.5°C 92% Calm Calm -- 29.66 in1004.4 mb 0.02 in0.5 mm 0.00 in/hr0.0 mm/hr 0.05 in1.3 mm
06:38 AM 42.3°F5.7°C 40.1°F4.5°C 92% Calm Calm -- 29.66 in1004.4 mb 0.03 in0.8 mm 0.12 in/hr3.0 mm/hr 0.06 in1.5 mm
06:43 AM 42.3°F5.7°C 40.1°F4.5°C 92% Calm Calm -- 29.66 in1004.4 mb 0.03 in0.8 mm 0.00 in/hr0.0 mm/hr 0.06 in1.5 mm
06:48 AM 42.3°F5.7°C 40.1°F4.5°C 92% Calm Calm -- 29.66 in1004.4 mb 0.02 in0.5 mm 0.00 in/hr0.0 mm/hr 0.06 in1.5 mm
06:53 AM 42.3°F5.7°C 40.1°F4.5°C 92% Calm Calm -- 29.66 in1004.4 mb 0.02 in0.5 mm 0.00 in/hr0.0 mm/hr 0.06 in1.5 mm
06:58 AM 42.3°F5.7°C 40.1°F4.5°C 92% Calm Calm -- 29.66 in1004.4 mb 0.02 in0.5 mm 0.00 in/hr0.0 mm/hr 0.06 in1.5 mm
07:04 AM 42.3°F5.7°C 40.1°F4.5°C 92% Calm Calm -- 29.66 in1004.4 mb 0.02 in0.5 mm 0.00 in/hr0.0 mm/hr 0.06 in1.5 mm
07:09 AM 42.3°F5.7°C 39.8°F4.3°C 91% Calm Calm -- 29.66 in1004.4 mb 0.01 in0.3 mm 0.00 in/hr0.0 mm/hr 0.06 in1.5 mm
07:14 AM 42.3°F5.7°C 39.8°F4.3°C 91% Calm Calm -- 29.67 in1004.7 mb 0.01 in0.3 mm 0.00 in/hr0.0 mm/hr 0.06 in1.5 mm
07:19 AM 42.3°F5.7°C 39.8°F4.3°C 91% Calm Calm -- 29.67 in1004.7 mb 0.01 in0.3 mm 0.00 in/hr0.0 mm/hr 0.06 in1.5 mm
07:24 AM 42.5°F5.8°C 40.0°F4.4°C 91% Calm Calm -- 29.67 in1004.7 mb 0.01 in0.3 mm 0.00 in/hr0.0 mm/hr 0.06 in1.5 mm
07:29 AM 42.5°F5.8°C 40.3°F4.6°C 92% Calm Calm -- 29.67 in1004.7 mb 0.01 in0.3 mm 0.00 in/hr0.0 mm/hr 0.06 in1.5 mm
07:34 AM 42.5°F5.8°C 40.3°F4.6°C 92% Calm Calm -- 29.67 in1004.7 mb 0.01 in0.3 mm 0.00 in/hr0.0 mm/hr 0.06 in1.5 mm
07:40 AM 42.6°F5.9°C 40.4°F4.7°C 92% Calm Calm -- 29.67 in1004.7 mb 0.00 in0.0 mm 0.00 in/hr0.0 mm/hr 0.06 in1.5 mm
07:45 AM 42.6°F5.9°C 40.4°F4.7°C 92% Calm Calm -- 29.67 in1004.7 mb 0.00 in0.0 mm 0.00 in/hr0.0 mm/hr 0.06 in1.5 mm
07:50 AM 42.8°F6.0°C 40.6°F4.8°C 92% Calm Calm -- 29.67 in1004.7 mb 0.00 in0.0 mm 0.00 in/hr0.0 mm/hr 0.06 in1.5 mm
07:55 AM 42.8°F6.0°C 40.6°F4.8°C 92% Calm Calm -- 29.67 in1004.7 mb 0.00 in0.0 mm 0.00 in/hr0.0 mm/hr 0.06 in1.5 mm
08:00 AM 42.9°F6.1°C 40.7°F4.8°C 92% Calm Calm -- 29.67 in1004.7 mb 0.00 in0.0 mm 0.00 in/hr0.0 mm/hr 0.06 in1.5 mm
08:05 AM 43.1°F6.2°C 41.2°F5.1°C 93% Calm Calm -- 29.67 in1004.7 mb 0.00 in0.0 mm 0.00 in/hr0.0 mm/hr 0.06 in1.5 mm
08:10 AM 43.1°F6.2°C 40.9°F4.9°C 92% Calm Calm -- 29.67 in1004.7 mb 0.00 in0.0 mm 0.00 in/hr0.0 mm/hr 0.06 in1.5 mm
08:15 AM 43.1°F6.2°C 40.9°F4.9°C 92% Calm Calm -- 29.67 in1004.7 mb 0.00 in0.0 mm 0.00 in/hr0.0 mm/hr 0.06 in1.5 mm
08:20 AM 43.2°F6.2°C 41.0°F5.0°C 92% Calm Calm -- 29.67 in1004.7 mb 0.00 in0.0 mm 0.00 in/hr0.0 mm/hr 0.06 in1.5 mm
08:25 AM 43.3°F6.3°C 41.1°F5.1°C 92% Calm Calm -- 29.67 in1004.7 mb 0.00 in0.0 mm 0.00 in/hr0.0 mm/hr 0.06 in1.5 mm
08:31 AM 43.5°F6.4°C 41.0°F5.0°C 91% Calm Calm -- 29.67 in1004.7 mb 0.00 in0.0 mm 0.00 in/hr0.0 mm/hr 0.06 in1.5 mm
08:36 AM 43.5°F6.4°C 41.0°F5.0°C 91% Calm Calm 2.0 mph3.2 kmh 29.67 in1004.7 mb 0.00 in0.0 mm 0.00 in/hr0.0 mm/hr 0.06 in1.5 mm
08:41 AM 43.8°F6.6°C 41.3°F5.2°C 91% Calm Calm -- 29.67 in1004.7 mb 0.00 in0.0 mm 0.00 in/hr0.0 mm/hr 0.06 in1.5 mm
08:46 AM 43.8°F6.6°C 41.3°F5.2°C 91% Calm Calm -- 29.67 in1004.7 mb 0.00 in0.0 mm 0.00 in/hr0.0 mm/hr 0.06 in1.5 mm
08:51 AM 43.8°F6.6°C 40.7°F4.8°C 89% Calm Calm -- 29.67 in1004.7 mb 0.00 in0.0 mm 0.00 in/hr0.0 mm/hr 0.06 in1.5 mm
09:12 AM 44.1°F6.7°C 41.0°F5.0°C 89% Calm Calm -- 29.67 in1004.7 mb 0.01 in0.3 mm 0.02 in/hr0.5 mm/hr 0.07 in1.8 mm
09:17 AM 44.2°F6.8°C 40.8°F4.9°C 88% Calm Calm -- 29.67 in1004.7 mb 0.01 in0.3 mm 0.00 in/hr0.0 mm/hr 0.07 in1.8 mm
09:22 AM 44.3°F6.8°C 40.9°F4.9°C 88% Calm Calm -- 29.67 in1004.7 mb 0.01 in0.3 mm 0.00 in/hr0.0 mm/hr 0.07 in1.8 mm
09:27 AM 44.3°F6.8°C 39.5°F4.2°C 83% Calm Calm -- 29.67 in1004.7 mb 0.01 in0.3 mm 0.00 in/hr0.0 mm/hr 0.07 in1.8 mm
09:32 AM 44.6°F7.0°C 40.4°F4.7°C 85% Calm Calm -- 29.66 in1004.4 mb 0.01 in0.3 mm 0.00 in/hr0.0 mm/hr 0.07 in1.8 mm
09:37 AM 44.8°F7.1°C 39.3°F4.1°C 81% Calm Calm -- 29.66 in1004.4 mb 0.01 in0.3 mm 0.00 in/hr0.0 mm/hr 0.07 in1.8 mm
09:42 AM 45.2°F7.3°C 39.1°F3.9°C 79% Calm Calm -- 29.66 in1004.4 mb 0.01 in0.3 mm 0.00 in/hr0.0 mm/hr 0.07 in1.8 mm
09:47 AM 45.4°F7.4°C 38.7°F3.7°C 77% Calm Calm -- 29.67 in1004.7 mb 0.01 in0.3 mm 0.00 in/hr0.0 mm/hr 0.07 in1.8 mm
09:52 AM 45.4°F7.4°C 37.9°F3.3°C 75% 2.0 mph NNW3.2 kmh NNW 3.0 mph4.8 kmh 29.67 in1004.7 mb 0.00 in0.0 mm 0.00 in/hr0.0 mm/hr 0.07 in1.8 mm
09:57 AM 45.5°F7.5°C 39.1°F3.9°C 78% Calm Calm 3.0 mph4.8 kmh 29.67 in1004.7 mb 0.00 in0.0 mm 0.00 in/hr0.0 mm/hr 0.07 in1.8 mm
10:02 AM 45.8°F7.7°C 38.7°F3.7°C 76% Calm Calm 2.0 mph3.2 kmh 29.66 in1004.4 mb 0.00 in0.0 mm 0.00 in/hr0.0 mm/hr 0.07 in1.8 mm
10:07 AM 46.0°F7.8°C 38.6°F3.7°C 75% Calm Calm 3.0 mph4.8 kmh 29.66 in1004.4 mb 0.00 in0.0 mm 0.00 in/hr0.0 mm/hr 0.07 in1.8 mm
10:12 AM 46.2°F7.9°C 38.0°F3.3°C 73% Calm Calm 3.0 mph4.8 kmh 29.66 in1004.4 mb 0.00 in0.0 mm 0.00 in/hr0.0 mm/hr 0.07 in1.8 mm
10:17 AM 46.5°F8.1°C 38.0°F3.3°C 72% Calm Calm -- 29.67 in1004.7 mb 0.00 in0.0 mm 0.00 in/hr0.0 mm/hr 0.07 in1.8 mm
10:22 AM 46.8°F8.2°C 38.3°F3.5°C 72% Calm Calm 3.0 mph4.8 kmh 29.67 in1004.7 mb 0.00 in0.0 mm 0.00 in/hr0.0 mm/hr 0.07 in1.8 mm
10:27 AM 47.3°F8.5°C 38.7°F3.7°C 72% 1.0 mph SE1.6 kmh SE 5.0 mph8.0 kmh 29.67 in1004.7 mb 0.00 in0.0 mm 0.00 in/hr0.0 mm/hr 0.07 in1.8 mm
10:32 AM 47.3°F8.5°C 38.5°F3.6°C 71% Calm Calm 5.0 mph8.0 kmh 29.67 in1004.7 mb 0.00 in0.0 mm 0.00 in/hr0.0 mm/hr 0.07 in1.8 mm
10:37 AM 47.4°F8.6°C 38.9°F3.8°C 72% Calm Calm 2.0 mph3.2 kmh 29.67 in1004.7 mb 0.00 in0.0 mm 0.00 in/hr0.0 mm/hr 0.07 in1.8 mm
10:42 AM 47.3°F8.5°C 38.1°F3.4°C 70% Calm Calm 1.0 mph1.6 kmh 29.67 in1004.7 mb 0.00 in0.0 mm 0.00 in/hr0.0 mm/hr 0.07 in1.8 mm
10:47 AM 47.3°F8.5°C 38.5°F3.6°C 71% Calm Calm 1.0 mph1.6 kmh 29.67 in1004.7 mb 0.00 in0.0 mm 0.00 in/hr0.0 mm/hr 0.07 in1.8 mm
10:52 AM 47.4°F8.6°C 38.6°F3.7°C 71% Calm Calm -- 29.67 in1004.7 mb 0.00 in0.0 mm 0.00 in/hr0.0 mm/hr 0.07 in1.8 mm
10:57 AM 47.6°F8.7°C 39.8°F4.3°C 74% Calm Calm -- 29.67 in1004.7 mb 0.00 in0.0 mm 0.00 in/hr0.0 mm/hr 0.07 in1.8 mm
11:02 AM 47.7°F8.7°C 39.2°F4.0°C 72% Calm Calm -- 29.67 in1004.7 mb 0.00 in0.0 mm 0.00 in/hr0.0 mm/hr 0.07 in1.8 mm
11:07 AM 47.7°F8.7°C 40.9°F4.9°C 77% Calm Calm -- 29.67 in1004.7 mb 0.00 in0.0 mm 0.00 in/hr0.0 mm/hr 0.07 in1.8 mm
11:12 AM 47.9°F8.8°C 40.1°F4.5°C 74% Calm Calm -- 29.67 in1004.7 mb 0.00 in0.0 mm 0.00 in/hr0.0 mm/hr 0.07 in1.8 mm
11:17 AM 47.7°F8.7°C 40.2°F4.6°C 75% Calm Calm -- 29.67 in1004.7 mb 0.00 in0.0 mm 0.00 in/hr0.0 mm/hr 0.07 in1.8 mm
11:23 AM 47.6°F8.7°C 38.7°F3.7°C 71% Calm Calm -- 29.67 in1004.7 mb 0.00 in0.0 mm 0.00 in/hr0.0 mm/hr 0.07 in1.8 mm
11:28 AM 47.6°F8.7°C 37.6°F3.1°C 68% Calm Calm -- 29.67 in1004.7 mb 0.00 in0.0 mm 0.00 in/hr0.0 mm/hr 0.07 in1.8 mm
11:33 AM 47.7°F8.7°C 37.4°F3.0°C 67% Calm Calm -- 29.67 in1004.7 mb 0.00 in0.0 mm 0.00 in/hr0.0 mm/hr 0.07 in1.8 mm
11:37 AM 48.2°F9.0°C 37.9°F3.3°C 67% Calm Calm 2.0 mph3.2 kmh 29.67 in1004.7 mb 0.00 in0.0 mm 0.00 in/hr0.0 mm/hr 0.07 in1.8 mm
11:43 AM 48.2°F9.0°C 37.1°F2.8°C 65% Calm Calm 2.0 mph3.2 kmh 29.67 in1004.7 mb 0.00 in0.0 mm 0.00 in/hr0.0 mm/hr 0.07 in1.8 mm
12:27 PM 49.6°F9.8°C 37.9°F3.3°C 64% Calm Calm -- 29.65 in1004.1 mb 0.00 in0.0 mm 0.00 in/hr0.0 mm/hr 0.07 in1.8 mm
12:32 PM 49.2°F9.6°C 36.0°F2.2°C 60% Calm Calm 3.0 mph4.8 kmh 29.65 in1004.1 mb 0.01 in0.3 mm 0.12 in/hr3.0 mm/hr 0.08 in2.0 mm
12:41 PM 50.5°F10.3°C 38.1°F3.4°C 62% Calm Calm -- 29.65 in1004.1 mb 0.01 in0.3 mm 0.00 in/hr0.0 mm/hr 0.08 in2.0 mm
12:51 PM 51.0°F10.6°C 36.8°F2.7°C 58% Calm Calm 2.0 mph3.2 kmh 29.63 in1003.4 mb 0.00 in0.0 mm 0.00 in/hr0.0 mm/hr 0.08 in2.0 mm
01:02 PM 50.7°F10.4°C 33.7°F0.9°C 52% Calm Calm -- 29.63 in1003.4 mb 0.00 in0.0 mm 0.00 in/hr0.0 mm/hr 0.08 in2.0 mm
01:07 PM 50.5°F10.3°C 35.4°F1.9°C 56% Calm Calm 2.0 mph3.2 kmh 29.63 in1003.4 mb 0.00 in0.0 mm 0.00 in/hr0.0 mm/hr 0.08 in2.0 mm
01:12 PM 50.5°F10.3°C 35.9°F2.2°C 57% Calm Calm 2.0 mph3.2 kmh 29.63 in1003.4 mb 0.00 in0.0 mm 0.00 in/hr0.0 mm/hr 0.08 in2.0 mm
01:17 PM 50.8°F10.4°C 37.4°F3.0°C 60% Calm Calm -- 29.62 in1003.0 mb 0.00 in0.0 mm 0.00 in/hr0.0 mm/hr 0.08 in2.0 mm
01:22 PM 51.1°F10.6°C 36.0°F2.2°C 56% Calm Calm 1.0 mph1.6 kmh 29.62 in1003.0 mb 0.00 in0.0 mm 0.00 in/hr0.0 mm/hr 0.08 in2.0 mm
01:27 PM 51.1°F10.6°C 36.9°F2.7°C 58% Calm Calm 2.0 mph3.2 kmh 29.62 in1003.0 mb 0.00 in0.0 mm 0.00 in/hr0.0 mm/hr 0.08 in2.0 mm
01:32 PM 51.3°F10.7°C 37.5°F3.1°C 59% Calm Calm 2.0 mph3.2 kmh 29.62 in1003.0 mb 0.00 in0.0 mm 0.00 in/hr0.0 mm/hr 0.08 in2.0 mm
01:37 PM 51.3°F10.7°C 35.2°F1.8°C 54% Calm Calm 2.0 mph3.2 kmh 29.62 in1003.0 mb 0.00 in0.0 mm 0.00 in/hr0.0 mm/hr 0.08 in2.0 mm
01:42 PM 51.4°F10.8°C 35.3°F1.8°C 54% Calm Calm 2.0 mph3.2 kmh 29.62 in1003.0 mb 0.00 in0.0 mm 0.00 in/hr0.0 mm/hr 0.08 in2.0 mm
01:47 PM 51.6°F10.9°C 35.5°F1.9°C 54% Calm Calm 2.0 mph3.2 kmh 29.62 in1003.0 mb 0.00 in0.0 mm 0.00 in/hr0.0 mm/hr 0.08 in2.0 mm
01:52 PM 51.9°F11.1°C 38.5°F3.6°C 60% Calm Calm 2.0 mph3.2 kmh 29.62 in1003.0 mb 0.00 in0.0 mm 0.00 in/hr0.0 mm/hr 0.08 in2.0 mm
01:57 PM 52.8°F11.6°C 38.5°F3.6°C 58% Calm Calm 2.0 mph3.2 kmh 29.62 in1003.0 mb 0.00 in0.0 mm 0.00 in/hr0.0 mm/hr 0.08 in2.0 mm
02:02 PM 53.2°F11.8°C 38.9°F3.8°C 58% Calm Calm 6.0 mph9.7 kmh 29.61 in1002.7 mb 0.00 in0.0 mm 0.00 in/hr0.0 mm/hr 0.08 in2.0 mm
02:07 PM 53.8°F12.1°C 39.9°F4.4°C 59% 1.0 mph N1.6 kmh N 6.0 mph9.7 kmh 29.61 in1002.7 mb 0.00 in0.0 mm 0.00 in/hr0.0 mm/hr 0.08 in2.0 mm
02:12 PM 53.1°F11.7°C 39.2°F4.0°C 59% 1.0 mph N1.6 kmh N 5.0 mph8.0 kmh 29.61 in1002.7 mb 0.00 in0.0 mm 0.00 in/hr0.0 mm/hr 0.08 in2.0 mm
02:17 PM 52.5°F11.4°C 38.2°F3.4°C 58% 1.0 mph NNW1.6 kmh NNW 5.0 mph8.0 kmh 29.61 in1002.7 mb 0.00 in0.0 mm 0.00 in/hr0.0 mm/hr 0.08 in2.0 mm
02:22 PM 52.0°F11.1°C 36.8°F2.7°C 56% Calm Calm 3.0 mph4.8 kmh 29.61 in1002.7 mb 0.00 in0.0 mm 0.00 in/hr0.0 mm/hr 0.08 in2.0 mm
02:27 PM 51.1°F10.6°C 38.6°F3.7°C 62% 3.0 mph NW4.8 kmh NW 7.0 mph11.3 kmh 29.61 in1002.7 mb 0.00 in0.0 mm 0.00 in/hr0.0 mm/hr 0.08 in2.0 mm
02:32 PM 50.4°F10.2°C 39.6°F4.2°C 66% 2.0 mph NW3.2 kmh NW 7.0 mph11.3 kmh 29.61 in1002.7 mb 0.00 in0.0 mm 0.00 in/hr0.0 mm/hr 0.08 in2.0 mm
02:38 PM 49.8°F9.9°C 40.4°F4.7°C 70% 1.0 mph NW1.6 kmh NW 5.0 mph8.0 kmh 29.61 in1002.7 mb 0.00 in0.0 mm 0.00 in/hr0.0 mm/hr 0.08 in2.0 mm
02:43 PM 49.2°F9.6°C 40.6°F4.8°C 72% 3.0 mph WNW4.8 kmh WNW 8.0 mph12.9 kmh 29.61 in1002.7 mb 0.00 in0.0 mm 0.00 in/hr0.0 mm/hr 0.08 in2.0 mm
02:47 PM 48.3°F9.1°C 40.5°F4.7°C 74% 3.0 mph WSW4.8 kmh WSW 8.0 mph12.9 kmh 29.62 in1003.0 mb 0.00 in0.0 mm 0.00 in/hr0.0 mm/hr 0.08 in2.0 mm
02:53 PM 47.9°F8.8°C 39.4°F4.1°C 72% 2.0 mph WSW3.2 kmh WSW 12.0 mph19.3 kmh 29.62 in1003.0 mb 0.00 in0.0 mm 0.00 in/hr0.0 mm/hr 0.08 in2.0 mm
02:58 PM 47.3°F8.5°C 41.2°F5.1°C 79% 1.0 mph SW1.6 kmh SW 12.0 mph19.3 kmh 29.62 in1003.0 mb 0.01 in0.3 mm 0.12 in/hr3.0 mm/hr 0.09 in2.3 mm
03:03 PM 46.8°F8.2°C 39.7°F4.3°C 76% Calm Calm 5.0 mph8.0 kmh 29.64 in1003.7 mb 0.01 in0.3 mm 0.00 in/hr0.0 mm/hr 0.09 in2.3 mm
03:08 PM 46.8°F8.2°C 38.3°F3.5°C 72% 4.0 mph S6.4 kmh S 7.0 mph11.3 kmh 29.64 in1003.7 mb 0.01 in0.3 mm 0.00 in/hr0.0 mm/hr 0.09 in2.3 mm
03:13 PM 46.7°F8.2°C 38.2°F3.4°C 72% 2.0 mph S3.2 kmh S 7.0 mph11.3 kmh 29.64 in1003.7 mb 0.01 in0.3 mm 0.00 in/hr0.0 mm/hr 0.09 in2.3 mm
03:18 PM 46.8°F8.2°C 38.3°F3.5°C 72% 3.0 mph SSE4.8 kmh SSE 6.0 mph9.7 kmh 29.65 in1004.1 mb 0.01 in0.3 mm 0.00 in/hr0.0 mm/hr 0.09 in2.3 mm
03:23 PM 47.0°F8.3°C 38.9°F3.8°C 73% 1.0 mph SE1.6 kmh SE 5.0 mph8.0 kmh 29.65 in1004.1 mb 0.01 in0.3 mm 0.00 in/hr0.0 mm/hr 0.09 in2.3 mm
03:28 PM 47.7°F8.7°C 40.9°F4.9°C 77% 1.0 mph E1.6 kmh E 5.0 mph8.0 kmh 29.65 in1004.1 mb 0.01 in0.3 mm 0.00 in/hr0.0 mm/hr 0.09 in2.3 mm
03:33 PM 48.0°F8.9°C 39.5°F4.2°C 72% 1.0 mph NE1.6 kmh NE 8.0 mph12.9 kmh 29.65 in1004.1 mb 0.01 in0.3 mm 0.00 in/hr0.0 mm/hr 0.09 in2.3 mm
03:38 PM 48.0°F8.9°C 39.5°F4.2°C 72% Calm Calm 8.0 mph12.9 kmh 29.65 in1004.1 mb 0.01 in0.3 mm 0.00 in/hr0.0 mm/hr 0.09 in2.3 mm
03:43 PM 47.7°F8.7°C 37.4°F3.0°C 67% 1.0 mph E1.6 kmh E 7.0 mph11.3 kmh 29.65 in1004.1 mb 0.01 in0.3 mm 0.00 in/hr0.0 mm/hr 0.09 in2.3 mm
03:48 PM 48.0°F8.9°C 39.8°F4.3°C 73% Calm Calm 5.0 mph8.0 kmh 29.64 in1003.7 mb 0.01 in0.3 mm 0.00 in/hr0.0 mm/hr 0.09 in2.3 mm
03:53 PM 48.3°F9.1°C 38.7°F3.7°C 69% Calm Calm 4.0 mph6.4 kmh 29.64 in1003.7 mb 0.01 in0.3 mm 0.00 in/hr0.0 mm/hr 0.09 in2.3 mm
03:58 PM 48.5°F9.2°C 38.1°F3.4°C 67% Calm Calm 3.0 mph4.8 kmh 29.64 in1003.7 mb 0.00 in0.0 mm 0.00 in/hr0.0 mm/hr 0.09 in2.3 mm
04:03 PM 48.5°F9.2°C 39.3°F4.1°C 70% 2.0 mph NW3.2 kmh NW 4.0 mph6.4 kmh 29.64 in1003.7 mb 0.00 in0.0 mm 0.00 in/hr0.0 mm/hr 0.09 in2.3 mm
04:08 PM 48.0°F8.9°C 38.8°F3.8°C 70% 4.0 mph WNW6.4 kmh WNW 5.0 mph8.0 kmh 29.64 in1003.7 mb 0.00 in0.0 mm 0.00 in/hr0.0 mm/hr 0.09 in2.3 mm
04:13 PM 46.5°F8.1°C 38.4°F3.6°C 73% 6.0 mph W9.7 kmh W 12.0 mph19.3 kmh 29.64 in1003.7 mb 0.00 in0.0 mm 0.00 in/hr0.0 mm/hr 0.09 in2.3 mm
04:18 PM 44.3°F6.8°C 37.3°F2.9°C 76% 4.0 mph WNW6.4 kmh WNW 12.0 mph19.3 kmh 29.67 in1004.7 mb 0.02 in0.5 mm 0.24 in/hr6.1 mm/hr 0.11 in2.8 mm
04:23 PM 43.6°F6.4°C 38.2°F3.4°C 81% 3.0 mph WNW4.8 kmh WNW 9.0 mph14.5 kmh 29.67 in1004.7 mb 0.03 in0.8 mm 0.12 in/hr3.0 mm/hr 0.12 in3.0 mm
04:28 PM 43.3°F6.3°C 37.9°F3.3°C 81% 2.0 mph W3.2 kmh W 6.0 mph9.7 kmh 29.67 in1004.7 mb 0.03 in0.8 mm 0.00 in/hr0.0 mm/hr 0.12 in3.0 mm
04:33 PM 43.3°F6.3°C 38.8°F3.8°C 84% 2.0 mph WNW3.2 kmh WNW 6.0 mph9.7 kmh 29.68 in1005.1 mb 0.03 in0.8 mm 0.00 in/hr0.0 mm/hr 0.12 in3.0 mm
04:38 PM 43.1°F6.2°C 38.3°F3.5°C 83% 4.0 mph W6.4 kmh W 12.0 mph19.3 kmh 29.68 in1005.1 mb 0.04 in1.0 mm 0.12 in/hr3.0 mm/hr 0.13 in3.3 mm
04:43 PM 42.5°F5.8°C 36.8°F2.7°C 80% 6.0 mph W9.7 kmh W 12.0 mph19.3 kmh 29.68 in1005.1 mb 0.05 in1.3 mm 0.12 in/hr3.0 mm/hr 0.14 in3.6 mm
04:48 PM 42.1°F5.6°C 36.7°F2.6°C 81% 4.0 mph S6.4 kmh S 11.0 mph17.7 kmh 29.68 in1005.1 mb 0.06 in1.5 mm 0.12 in/hr3.0 mm/hr 0.15 in3.8 mm
04:53 PM 42.5°F5.8°C 35.8°F2.1°C 77% 6.0 mph SSE9.7 kmh SSE 11.0 mph17.7 kmh 29.68 in1005.1 mb 0.07 in1.8 mm 0.12 in/hr3.0 mm/hr 0.16 in4.1 mm
04:58 PM 42.2°F5.7°C 37.1°F2.8°C 82% 3.0 mph E4.8 kmh E 10.0 mph16.1 kmh 29.68 in1005.1 mb 0.08 in2.0 mm 0.12 in/hr3.0 mm/hr 0.17 in4.3 mm
05:03 PM 42.3°F5.7°C 38.4°F3.6°C 86% 1.0 mph SW1.6 kmh SW 6.0 mph9.7 kmh 29.68 in1005.1 mb 0.08 in2.0 mm 0.00 in/hr0.0 mm/hr 0.17 in4.3 mm
05:08 PM 42.8°F6.0°C 38.3°F3.5°C 84% Calm Calm 3.0 mph4.8 kmh 29.68 in1005.1 mb 0.08 in2.0 mm 0.00 in/hr0.0 mm/hr 0.17 in4.3 mm
05:13 PM 42.9°F6.1°C 38.4°F3.6°C 84% 1.0 mph SE1.6 kmh SE 3.0 mph4.8 kmh 29.68 in1005.1 mb 0.07 in1.8 mm 0.00 in/hr0.0 mm/hr 0.17 in4.3 mm
05:18 PM 42.9°F6.1°C 39.3°F4.1°C 87% 4.0 mph ESE6.4 kmh ESE 6.0 mph9.7 kmh 29.70 in1005.8 mb 0.06 in1.5 mm 0.00 in/hr0.0 mm/hr 0.17 in4.3 mm
05:23 PM 42.9°F6.1°C 38.7°F3.7°C 85% 2.0 mph ESE3.2 kmh ESE 6.0 mph9.7 kmh 29.70 in1005.8 mb 0.05 in1.3 mm 0.00 in/hr0.0 mm/hr 0.17 in4.3 mm
05:29 PM 43.1°F6.2°C 39.8°F4.3°C 88% 1.0 mph ESE1.6 kmh ESE 5.0 mph8.0 kmh 29.70 in1005.8 mb 0.05 in1.3 mm 0.00 in/hr0.0 mm/hr 0.17 in4.3 mm
05:34 PM 43.2°F6.2°C 40.2°F4.6°C 89% Calm Calm 3.0 mph4.8 kmh 29.70 in1005.8 mb 0.05 in1.3 mm 0.00 in/hr0.0 mm/hr 0.17 in4.3 mm
05:39 PM 43.3°F6.3°C 39.1°F3.9°C 85% 2.0 mph ESE3.2 kmh ESE 2.0 mph3.2 kmh 29.70 in1005.8 mb 0.04 in1.0 mm 0.00 in/hr0.0 mm/hr 0.17 in4.3 mm
05:43 PM 43.3°F6.3°C 38.5°F3.6°C 83% 2.0 mph ESE3.2 kmh ESE 3.0 mph4.8 kmh 29.70 in1005.8 mb 0.03 in0.8 mm 0.00 in/hr0.0 mm/hr 0.17 in4.3 mm
05:49 PM 43.3°F6.3°C 38.5°F3.6°C 83% 1.0 mph ESE1.6 kmh ESE 4.0 mph6.4 kmh 29.70 in1005.8 mb 0.02 in0.5 mm 0.00 in/hr0.0 mm/hr 0.17 in4.3 mm
05:54 PM 43.3°F6.3°C 38.8°F3.8°C 84% 1.0 mph ESE1.6 kmh ESE 4.0 mph6.4 kmh 29.70 in1005.8 mb 0.01 in0.3 mm 0.00 in/hr0.0 mm/hr 0.17 in4.3 mm
05:59 PM 43.2°F6.2°C 37.8°F3.2°C 81% 1.0 mph SE1.6 kmh SE 5.0 mph8.0 kmh 29.70 in1005.8 mb 0.00 in0.0 mm 0.00 in/hr0.0 mm/hr 0.17 in4.3 mm
06:04 PM 43.1°F6.2°C 37.7°F3.2°C 81% 3.0 mph SE4.8 kmh SE 5.0 mph8.0 kmh 29.70 in1005.8 mb 0.00 in0.0 mm 0.00 in/hr0.0 mm/hr 0.17 in4.3 mm
06:09 PM 42.9°F6.1°C 38.4°F3.6°C 84% Calm Calm 5.0 mph8.0 kmh 29.70 in1005.8 mb 0.00 in0.0 mm 0.00 in/hr0.0 mm/hr 0.17 in4.3 mm
06:14 PM 42.8°F6.0°C 38.9°F3.8°C 86% 1.0 mph SE1.6 kmh SE 3.0 mph4.8 kmh 29.70 in1005.8 mb 0.01 in0.3 mm 0.12 in/hr3.0 mm/hr 0.18 in4.6 mm
06:19 PM 42.8°F6.0°C 39.5°F4.2°C 88% Calm Calm 2.0 mph3.2 kmh 29.71 in1006.1 mb 0.01 in0.3 mm 0.00 in/hr0.0 mm/hr 0.18 in4.6 mm
06:24 PM 42.8°F6.0°C 39.8°F4.3°C 89% Calm Calm 3.0 mph4.8 kmh 29.71 in1006.1 mb 0.01 in0.3 mm 0.00 in/hr0.0 mm/hr 0.18 in4.6 mm
06:29 PM 42.8°F6.0°C 40.0°F4.4°C 90% 1.0 mph SE1.6 kmh SE 3.0 mph4.8 kmh 29.71 in1006.1 mb 0.01 in0.3 mm 0.00 in/hr0.0 mm/hr 0.18 in4.6 mm
06:34 PM 42.5°F5.8°C 38.9°F3.8°C 87% 5.0 mph ESE8.0 kmh ESE 6.0 mph9.7 kmh 29.70 in1005.8 mb 0.01 in0.3 mm 0.00 in/hr0.0 mm/hr 0.18 in4.6 mm
06:39 PM 42.3°F5.7°C 39.0°F3.9°C 88% 2.0 mph E3.2 kmh E 6.0 mph9.7 kmh 29.70 in1005.8 mb 0.01 in0.3 mm 0.00 in/hr0.0 mm/hr 0.18 in4.6 mm
06:44 PM 42.2°F5.7°C 38.9°F3.8°C 88% 4.0 mph E6.4 kmh E 7.0 mph11.3 kmh 29.70 in1005.8 mb 0.01 in0.3 mm 0.00 in/hr0.0 mm/hr 0.18 in4.6 mm
06:49 PM 42.2°F5.7°C 38.9°F3.8°C 88% Calm Calm 7.0 mph11.3 kmh 29.70 in1005.8 mb 0.01 in0.3 mm 0.00 in/hr0.0 mm/hr 0.18 in4.6 mm
06:54 PM 42.3°F5.7°C 39.3°F4.1°C 89% 1.0 mph E1.6 kmh E 6.0 mph9.7 kmh 29.70 in1005.8 mb 0.01 in0.3 mm 0.00 in/hr0.0 mm/hr 0.18 in4.6 mm
06:59 PM 42.3°F5.7°C 39.3°F4.1°C 89% Calm Calm 4.0 mph6.4 kmh 29.70 in1005.8 mb 0.01 in0.3 mm 0.00 in/hr0.0 mm/hr 0.18 in4.6 mm
07:04 PM 42.3°F5.7°C 38.7°F3.7°C 87% Calm Calm 2.0 mph3.2 kmh 29.70 in1005.8 mb 0.01 in0.3 mm 0.00 in/hr0.0 mm/hr 0.18 in4.6 mm
07:09 PM 42.3°F5.7°C 39.0°F3.9°C 88% 2.0 mph E3.2 kmh E 4.0 mph6.4 kmh 29.70 in1005.8 mb 0.01 in0.3 mm 0.00 in/hr0.0 mm/hr 0.18 in4.6 mm
07:14 PM 42.3°F5.7°C 39.0°F3.9°C 88% Calm Calm 4.0 mph6.4 kmh 29.70 in1005.8 mb 0.00 in0.0 mm 0.00 in/hr0.0 mm/hr 0.18 in4.6 mm
07:19 PM 42.3°F5.7°C 39.3°F4.1°C 89% Calm Calm 3.0 mph4.8 kmh 29.70 in1005.8 mb 0.00 in0.0 mm 0.00 in/hr0.0 mm/hr 0.18 in4.6 mm
07:24 PM 42.3°F5.7°C 39.0°F3.9°C 88% Calm Calm -- 29.70 in1005.8 mb 0.00 in0.0 mm 0.00 in/hr0.0 mm/hr 0.18 in4.6 mm
07:29 PM 42.3°F5.7°C 39.3°F4.1°C 89% Calm Calm -- 29.70 in1005.8 mb 0.00 in0.0 mm 0.00 in/hr0.0 mm/hr 0.18 in4.6 mm
07:34 PM 42.1°F5.6°C 38.2°F3.4°C 86% Calm Calm -- 29.70 in1005.8 mb 0.00 in0.0 mm 0.00 in/hr0.0 mm/hr 0.18 in4.6 mm
07:39 PM 42.1°F5.6°C 37.6°F3.1°C 84% Calm Calm 1.0 mph1.6 kmh 29.70 in1005.8 mb 0.00 in0.0 mm 0.00 in/hr0.0 mm/hr 0.18 in4.6 mm
07:44 PM 42.1°F5.6°C 37.9°F3.3°C 85% Calm Calm 1.0 mph1.6 kmh 29.70 in1005.8 mb 0.00 in0.0 mm 0.00 in/hr0.0 mm/hr 0.18 in4.6 mm
07:49 PM 42.1°F5.6°C 38.5°F3.6°C 87% Calm Calm -- 29.70 in1005.8 mb 0.00 in0.0 mm 0.00 in/hr0.0 mm/hr 0.18 in4.6 mm
07:54 PM 41.9°F5.5°C 38.0°F3.3°C 86% Calm Calm -- 29.70 in1005.8 mb 0.00 in0.0 mm 0.00 in/hr0.0 mm/hr 0.18 in4.6 mm
07:59 PM 41.6°F5.3°C 37.7°F3.2°C 86% Calm Calm -- 29.70 in1005.8 mb 0.00 in0.0 mm 0.00 in/hr0.0 mm/hr 0.18 in4.6 mm
08:04 PM 41.6°F5.3°C 37.1°F2.8°C 84% 1.0 mph E1.6 kmh E 4.0 mph6.4 kmh 29.70 in1005.8 mb 0.00 in0.0 mm 0.00 in/hr0.0 mm/hr 0.18 in4.6 mm
08:09 PM 41.5°F5.3°C 37.0°F2.8°C 84% Calm Calm 4.0 mph6.4 kmh 29.70 in1005.8 mb 0.00 in0.0 mm 0.00 in/hr0.0 mm/hr 0.18 in4.6 mm
08:14 PM 41.1°F5.1°C 37.5°F3.1°C 87% Calm Calm 2.0 mph3.2 kmh 29.70 in1005.8 mb 0.00 in0.0 mm 0.00 in/hr0.0 mm/hr 0.18 in4.6 mm
08:19 PM 41.3°F5.2°C 36.2°F2.3°C 82% 3.0 mph S4.8 kmh S 6.0 mph9.7 kmh 29.70 in1005.8 mb 0.00 in0.0 mm 0.00 in/hr0.0 mm/hr 0.18 in4.6 mm
08:24 PM 41.8°F5.4°C 35.5°F1.9°C 78% 2.0 mph SSE3.2 kmh SSE 6.0 mph9.7 kmh 29.70 in1005.8 mb 0.00 in0.0 mm 0.00 in/hr0.0 mm/hr 0.18 in4.6 mm
08:30 PM 41.9°F5.5°C 36.5°F2.5°C 81% 1.0 mph S1.6 kmh S 6.0 mph9.7 kmh 29.70 in1005.8 mb 0.00 in0.0 mm 0.00 in/hr0.0 mm/hr 0.18 in4.6 mm
08:34 PM 41.8°F5.4°C 36.1°F2.3°C 80% Calm Calm 5.0 mph8.0 kmh 29.70 in1005.8 mb 0.00 in0.0 mm 0.00 in/hr0.0 mm/hr 0.18 in4.6 mm
08:39 PM 41.6°F5.3°C 36.5°F2.5°C 82% Calm Calm -- 29.70 in1005.8 mb 0.00 in0.0 mm 0.00 in/hr0.0 mm/hr 0.18 in4.6 mm
08:45 PM 41.5°F5.3°C 36.1°F2.3°C 81% Calm Calm 3.0 mph4.8 kmh 29.70 in1005.8 mb 0.00 in0.0 mm 0.00 in/hr0.0 mm/hr 0.18 in4.6 mm
08:50 PM 41.6°F5.3°C 36.2°F2.3°C 81% Calm Calm 3.0 mph4.8 kmh 29.70 in1005.8 mb 0.00 in0.0 mm 0.00 in/hr0.0 mm/hr 0.18 in4.6 mm
08:55 PM 41.2°F5.1°C 36.1°F2.3°C 82% Calm Calm 3.0 mph4.8 kmh 29.70 in1005.8 mb 0.00 in0.0 mm 0.00 in/hr0.0 mm/hr 0.18 in4.6 mm
09:01 PM 41.2°F5.1°C 36.1°F2.3°C 82% Calm Calm 2.0 mph3.2 kmh 29.71 in1006.1 mb 0.00 in0.0 mm 0.00 in/hr0.0 mm/hr 0.18 in4.6 mm
09:06 PM 39.9°F4.4°C 36.3°F2.4°C 87% 1.0 mph SE1.6 kmh SE 2.0 mph3.2 kmh 29.71 in1006.1 mb 0.00 in0.0 mm 0.00 in/hr0.0 mm/hr 0.18 in4.6 mm
09:11 PM 39.6°F4.2°C 36.0°F2.2°C 87% Calm Calm 2.0 mph3.2 kmh 29.71 in1006.1 mb 0.00 in0.0 mm 0.00 in/hr0.0 mm/hr 0.18 in4.6 mm
09:16 PM 39.3°F4.1°C 36.0°F2.2°C 88% Calm Calm 1.0 mph1.6 kmh 29.70 in1005.8 mb 0.00 in0.0 mm 0.00 in/hr0.0 mm/hr 0.18 in4.6 mm
09:21 PM 39.5°F4.2°C 35.9°F2.2°C 87% Calm Calm 1.0 mph1.6 kmh 29.70 in1005.8 mb 0.00 in0.0 mm 0.00 in/hr0.0 mm/hr 0.18 in4.6 mm
09:26 PM 39.9°F4.4°C 35.5°F1.9°C 84% 1.0 mph SE1.6 kmh SE 3.0 mph4.8 kmh 29.70 in1005.8 mb 0.00 in0.0 mm 0.00 in/hr0.0 mm/hr 0.18 in4.6 mm
09:31 PM 40.8°F4.9°C 35.4°F1.9°C 81% 2.0 mph S3.2 kmh S 5.0 mph8.0 kmh 29.70 in1005.8 mb 0.00 in0.0 mm 0.00 in/hr0.0 mm/hr 0.18 in4.6 mm
09:36 PM 41.2°F5.1°C 36.4°F2.4°C 83% 1.0 mph S1.6 kmh S 5.0 mph8.0 kmh 29.70 in1005.8 mb 0.00 in0.0 mm 0.00 in/hr0.0 mm/hr 0.18 in4.6 mm
09:41 PM 41.2°F5.1°C 35.8°F2.1°C 81% 1.0 mph SSE1.6 kmh SSE 5.0 mph8.0 kmh 29.70 in1005.8 mb 0.00 in0.0 mm 0.00 in/hr0.0 mm/hr 0.18 in4.6 mm
09:46 PM 41.2°F5.1°C 35.8°F2.1°C 81% 3.0 mph S4.8 kmh S 7.0 mph11.3 kmh 29.70 in1005.8 mb 0.00 in0.0 mm 0.00 in/hr0.0 mm/hr 0.18 in4.6 mm
09:52 PM 41.1°F5.1°C 36.6°F2.6°C 84% Calm Calm 7.0 mph11.3 kmh 29.70 in1005.8 mb 0.00 in0.0 mm 0.00 in/hr0.0 mm/hr 0.18 in4.6 mm
09:57 PM 40.8°F4.9°C 36.6°F2.6°C 85% Calm Calm 3.0 mph4.8 kmh 29.70 in1005.8 mb 0.00 in0.0 mm 0.00 in/hr0.0 mm/hr 0.18 in4.6 mm
10:02 PM 40.2°F4.6°C 36.3°F2.4°C 86% Calm Calm 2.0 mph3.2 kmh 29.70 in1005.8 mb 0.00 in0.0 mm 0.00 in/hr0.0 mm/hr 0.18 in4.6 mm
10:06 PM 40.1°F4.5°C 35.9°F2.2°C 85% 1.0 mph S1.6 kmh S 5.0 mph8.0 kmh 29.70 in1005.8 mb 0.00 in0.0 mm 0.00 in/hr0.0 mm/hr 0.18 in4.6 mm
10:12 PM 39.6°F4.2°C 35.8°F2.1°C 86% Calm Calm 5.0 mph8.0 kmh 29.70 in1005.8 mb 0.00 in0.0 mm 0.00 in/hr0.0 mm/hr 0.18 in4.6 mm
10:17 PM 39.2°F4.0°C 35.1°F1.7°C 85% Calm Calm 1.0 mph1.6 kmh 29.68 in1005.1 mb 0.00 in0.0 mm 0.00 in/hr0.0 mm/hr 0.18 in4.6 mm
10:22 PM 38.9°F3.8°C 35.4°F1.9°C 87% Calm Calm 1.0 mph1.6 kmh 29.68 in1005.1 mb 0.00 in0.0 mm 0.00 in/hr0.0 mm/hr 0.18 in4.6 mm
10:27 PM 39.2°F4.0°C 35.4°F1.9°C 86% Calm Calm -- 29.68 in1005.1 mb 0.00 in0.0 mm 0.00 in/hr0.0 mm/hr 0.18 in4.6 mm
10:32 PM 39.2°F4.0°C 35.1°F1.7°C 85% Calm Calm -- 29.68 in1005.1 mb 0.00 in0.0 mm 0.00 in/hr0.0 mm/hr 0.18 in4.6 mm
10:37 PM 39.1°F3.9°C 35.0°F1.7°C 85% Calm Calm -- 29.68 in1005.1 mb 0.00 in0.0 mm 0.00 in/hr0.0 mm/hr 0.18 in4.6 mm
10:42 PM 39.8°F4.3°C 34.4°F1.3°C 81% 1.0 mph SW1.6 kmh SW 8.0 mph12.9 kmh 29.68 in1005.1 mb 0.00 in0.0 mm 0.00 in/hr0.0 mm/hr 0.18 in4.6 mm
10:47 PM 40.9°F4.9°C 34.6°F1.4°C 78% 1.0 mph SSE1.6 kmh SSE 8.0 mph12.9 kmh 29.68 in1005.1 mb 0.00 in0.0 mm 0.00 in/hr0.0 mm/hr 0.18 in4.6 mm
10:52 PM 41.5°F5.3°C 34.2°F1.2°C 75% 3.0 mph S4.8 kmh S 6.0 mph9.7 kmh 29.68 in1005.1 mb 0.00 in0.0 mm 0.00 in/hr0.0 mm/hr 0.18 in4.6 mm
10:57 PM 41.9°F5.5°C 34.3°F1.3°C 74% 4.0 mph S6.4 kmh S 8.0 mph12.9 kmh 29.68 in1005.1 mb 0.00 in0.0 mm 0.00 in/hr0.0 mm/hr 0.18 in4.6 mm
11:02 PM 42.1°F5.6°C 34.5°F1.4°C 74% 3.0 mph SSE4.8 kmh SSE 8.0 mph12.9 kmh 29.67 in1004.7 mb 0.00 in0.0 mm 0.00 in/hr0.0 mm/hr 0.18 in4.6 mm
11:07 PM 42.1°F5.6°C 34.5°F1.4°C 74% 2.0 mph S3.2 kmh S 7.0 mph11.3 kmh 29.67 in1004.7 mb 0.00 in0.0 mm 0.00 in/hr0.0 mm/hr 0.18 in4.6 mm
11:12 PM 41.8°F5.4°C 35.4°F1.9°C 78% Calm Calm 5.0 mph8.0 kmh 29.67 in1004.7 mb 0.00 in0.0 mm 0.00 in/hr0.0 mm/hr 0.18 in4.6 mm
11:17 PM 41.3°F5.2°C 35.0°F1.7°C 78% 3.0 mph SE4.8 kmh SE 5.0 mph8.0 kmh 29.67 in1004.7 mb 0.00 in0.0 mm 0.00 in/hr0.0 mm/hr 0.18 in4.6 mm
11:22 PM 41.5°F5.3°C 34.9°F1.6°C 77% 3.0 mph SSE4.8 kmh SSE 5.0 mph8.0 kmh 29.67 in1004.7 mb 0.00 in0.0 mm 0.00 in/hr0.0 mm/hr 0.18 in4.6 mm
11:27 PM 41.8°F5.4°C 34.8°F1.6°C 76% 1.0 mph SSE1.6 kmh SSE 5.0 mph8.0 kmh 29.67 in1004.7 mb 0.00 in0.0 mm 0.00 in/hr0.0 mm/hr 0.18 in4.6 mm
11:32 PM 41.5°F5.3°C 35.8°F2.1°C 80% 1.0 mph SE1.6 kmh SE 5.0 mph8.0 kmh 29.66 in1004.4 mb 0.00 in0.0 mm 0.00 in/hr0.0 mm/hr 0.18 in4.6 mm
11:37 PM 41.2°F5.1°C 34.6°F1.4°C 77% 1.0 mph SE1.6 kmh SE 4.0 mph6.4 kmh 29.66 in1004.4 mb 0.00 in0.0 mm 0.00 in/hr0.0 mm/hr 0.18 in4.6 mm
11:42 PM 41.3°F5.2°C 34.7°F1.5°C 77% Calm Calm 4.0 mph6.4 kmh 29.66 in1004.4 mb 0.00 in0.0 mm 0.00 in/hr0.0 mm/hr 0.18 in4.6 mm
11:47 PM 41.5°F5.3°C 34.9°F1.6°C 77% Calm Calm 3.0 mph4.8 kmh 29.67 in1004.7 mb 0.00 in0.0 mm 0.00 in/hr0.0 mm/hr 0.18 in4.6 mm
11:52 PM 41.8°F5.4°C 33.5°F0.8°C 72% 4.0 mph SSE6.4 kmh SSE 9.0 mph14.5 kmh 29.67 in1004.7 mb 0.00 in0.0 mm 0.00 in/hr0.0 mm/hr 0.18 in4.6 mm
11:57 PM 41.9°F5.5°C 33.9°F1.1°C 73% 1.0 mph SE1.6 kmh SE 9.0 mph14.5 kmh 29.67 in1004.7 mb 0.00 in0.0 mm 0.00 in/hr0.0 mm/hr 0.18 in4.6 mm